sensor_id;sensor_type;location;lat;lon;timestamp;pressure;altitude;pressure_sealevel;temperature;humidity
71239;BME280;61342;51.442;7.370;2022-12-18T00:00:09;101231.91;;;-4.21;73.71
71239;BME280;61342;51.442;7.370;2022-12-18T00:01:22;101232.31;;;-4.23;73.39
71239;BME280;61342;51.442;7.370;2022-12-18T00:02:26;101236.31;;;-4.24;73.42
71239;BME280;61342;51.442;7.370;2022-12-18T00:03:26;101256.31;;;-4.15;73.71
71239;BME280;61342;51.442;7.370;2022-12-18T00:04:27;101268.34;;;-4.07;73.49
71239;BME280;61342;51.442;7.370;2022-12-18T00:05:27;101259.53;;;-4.13;73.50
71239;BME280;61342;51.442;7.370;2022-12-18T00:06:31;101216.72;;;-4.31;73.46
71239;BME280;61342;51.442;7.370;2022-12-18T00:07:38;101263.50;;;-4.07;73.88
71239;BME280;61342;51.442;7.370;2022-12-18T00:08:41;101233.50;;;-4.24;73.70
71239;BME280;61342;51.442;7.370;2022-12-18T00:09:42;101247.53;;;-4.20;73.81
71239;BME280;61342;51.442;7.370;2022-12-18T00:10:42;101265.53;;;-4.11;73.63
71239;BME280;61342;51.442;7.370;2022-12-18T00:11:43;101239.13;;;-4.20;73.62
71239;BME280;61342;51.442;7.370;2022-12-18T00:12:43;101240.31;;;-4.18;73.97
71239;BME280;61342;51.442;7.370;2022-12-18T00:13:44;101232.31;;;-4.23;73.90
71239;BME280;61342;51.442;7.370;2022-12-18T00:14:45;101240.31;;;-4.14;74.00
71239;BME280;61342;51.442;7.370;2022-12-18T00:15:48;101253.53;;;-4.11;73.57
71239;BME280;61342;51.442;7.370;2022-12-18T00:16:51;101246.72;;;-4.17;73.69
71239;BME280;61342;51.442;7.370;2022-12-18T00:17:54;101239.91;;;-4.20;73.75
71239;BME280;61342;51.442;7.370;2022-12-18T00:18:56;101245.88;;;-4.11;73.67
71239;BME280;61342;51.442;7.370;2022-12-18T00:19:57;101251.91;;;-4.12;73.97
71239;BME280;61342;51.442;7.370;2022-12-18T00:21:02;101243.13;;;-4.14;73.66
71239;BME280;61342;51.442;7.370;2022-12-18T00:22:02;101251.91;;;-4.09;73.94
71239;BME280;61342;51.442;7.370;2022-12-18T00:23:03;101276.31;;;-3.99;73.84
71239;BME280;61342;51.442;7.370;2022-12-18T00:24:04;101239.06;;;-4.10;73.80
71239;BME280;61342;51.442;7.370;2022-12-18T00:25:07;101240.25;;;-4.04;73.93
71239;BME280;61342;51.442;7.370;2022-12-18T00:26:12;101261.03;;;-3.91;73.98
71239;BME280;61342;51.442;7.370;2022-12-18T00:27:13;101234.25;;;-4.02;74.39
71239;BME280;61342;51.442;7.370;2022-12-18T00:28:13;101265.00;;;-3.78;74.45
71239;BME280;61342;51.442;7.370;2022-12-18T00:29:14;101263.78;;;-3.74;74.27
71239;BME280;61342;51.442;7.370;2022-12-18T00:30:14;101235.78;;;-3.91;74.62
71239;BME280;61342;51.442;7.370;2022-12-18T00:31:18;101261.34;;;-3.68;74.54
71239;BME280;61342;51.442;7.370;2022-12-18T00:32:18;101261.69;;;-3.63;74.58
71239;BME280;61342;51.442;7.370;2022-12-18T00:33:21;101266.91;;;-3.58;74.62
71239;BME280;61342;51.442;7.370;2022-12-18T00:34:22;101262.50;;;-3.62;74.88
71239;BME280;61342;51.442;7.370;2022-12-18T00:35:22;101261.22;;;-3.47;74.90
71239;BME280;61342;51.442;7.370;2022-12-18T00:36:28;101265.56;;;-3.40;74.95
71239;BME280;61342;51.442;7.370;2022-12-18T00:37:28;101249.97;;;-3.47;75.01
71239;BME280;61342;51.442;7.370;2022-12-18T00:38:31;101231.94;;;-3.50;75.13
71239;BME280;61342;51.442;7.370;2022-12-18T00:39:37;101258.69;;;-3.32;75.01
71239;BME280;61342;51.442;7.370;2022-12-18T00:40:37;101255.47;;;-3.30;74.79
71239;BME280;61342;51.442;7.370;2022-12-18T00:41:40;101261.38;;;-3.18;75.01
71239;BME280;61342;51.442;7.370;2022-12-18T00:42:59;101258.97;;;-3.16;74.80
71239;BME280;61342;51.442;7.370;2022-12-18T00:44:01;101238.94;;;-3.21;75.13
71239;BME280;61342;51.442;7.370;2022-12-18T00:45:02;101242.13;;;-3.19;74.76
71239;BME280;61342;51.442;7.370;2022-12-18T00:46:05;101237.31;;;-3.19;74.72
71239;BME280;61342;51.442;7.370;2022-12-18T00:47:06;101221.59;;;-3.13;74.97
71239;BME280;61342;51.442;7.370;2022-12-18T00:48:07;101241.56;;;-3.00;75.05
71239;BME280;61342;51.442;7.370;2022-12-18T00:49:07;101267.94;;;-2.84;74.85
71239;BME280;61342;51.442;7.370;2022-12-18T00:50:11;101263.53;;;-2.85;74.88
71239;BME280;61342;51.442;7.370;2022-12-18T00:51:11;101249.88;;;-2.87;74.78
71239;BME280;61342;51.442;7.370;2022-12-18T00:52:12;101267.09;;;-2.78;74.57
71239;BME280;61342;51.442;7.370;2022-12-18T00:53:12;101245.88;;;-2.86;74.77
71239;BME280;61342;51.442;7.370;2022-12-18T00:54:13;101245.44;;;-2.81;74.56
71239;BME280;61342;51.442;7.370;2022-12-18T00:55:14;101245.00;;;-2.79;74.58
71239;BME280;61342;51.442;7.370;2022-12-18T00:56:14;101250.56;;;-2.72;74.46
71239;BME280;61342;51.442;7.370;2022-12-18T00:57:15;101255.31;;;-2.66;74.67
71239;BME280;61342;51.442;7.370;2022-12-18T00:58:18;101258.56;;;-2.67;74.45
71239;BME280;61342;51.442;7.370;2022-12-18T00:59:19;101245.25;;;-2.63;74.39
71239;BME280;61342;51.442;7.370;2022-12-18T01:00:19;101269.59;;;-2.46;74.13
71239;BME280;61342;51.442;7.370;2022-12-18T01:01:20;101251.19;;;-2.54;74.23
71239;BME280;61342;51.442;7.370;2022-12-18T01:02:20;101257.09;;;-2.42;74.28
71239;BME280;61342;51.442;7.370;2022-12-18T01:03:23;101235.91;;;-2.53;74.13
71239;BME280;61342;51.442;7.370;2022-12-18T01:04:24;101242.69;;;-2.51;74.00
71239;BME280;61342;51.442;7.370;2022-12-18T01:05:27;101248.66;;;-2.45;74.00
71239;BME280;61342;51.442;7.370;2022-12-18T01:06:27;101237.47;;;-2.49;74.09
71239;BME280;61342;51.442;7.370;2022-12-18T01:07:28;101243.78;;;-2.38;73.80
71239;BME280;61342;51.442;7.370;2022-12-18T01:08:31;101228.63;;;-2.51;73.98
71239;BME280;61342;51.442;7.370;2022-12-18T01:09:37;101220.53;;;-2.45;73.63
71239;BME280;61342;51.442;7.370;2022-12-18T01:10:40;101218.13;;;-2.43;73.69
71239;BME280;61342;51.442;7.370;2022-12-18T01:11:41;101233.31;;;-2.37;74.05
71239;BME280;61342;51.442;7.370;2022-12-18T01:12:41;101248.44;;;-2.25;73.51
71239;BME280;61342;51.442;7.370;2022-12-18T01:13:42;101212.41;;;-2.36;73.66
71239;BME280;61342;51.442;7.370;2022-12-18T01:14:42;101228.75;;;-2.25;73.74
71239;BME280;61342;51.442;7.370;2022-12-18T01:15:50;101258.34;;;-2.10;73.83
71239;BME280;61342;51.442;7.370;2022-12-18T01:16:51;101237.88;;;-2.14;73.68
71239;BME280;61342;51.442;7.370;2022-12-18T01:17:54;101245.47;;;-2.11;73.72
71239;BME280;61342;51.442;7.370;2022-12-18T01:18:54;101238.25;;;-2.12;73.37
71239;BME280;61342;51.442;7.370;2022-12-18T01:19:55;101252.22;;;-2.05;73.61
71239;BME280;61342;51.442;7.370;2022-12-18T01:20:55;101264.19;;;-1.94;73.74
71239;BME280;61342;51.442;7.370;2022-12-18T01:21:56;101252.97;;;-2.01;73.36
71239;BME280;61342;51.442;7.370;2022-12-18T01:22:57;101265.75;;;-1.93;73.25
71239;BME280;61342;51.442;7.370;2022-12-18T01:23:57;101271.34;;;-1.89;73.24
71239;BME280;61342;51.442;7.370;2022-12-18T01:24:57;101258.09;;;-1.89;73.07
71239;BME280;61342;51.442;7.370;2022-12-18T01:25:58;101252.16;;;-1.98;72.98
71239;BME280;61342;51.442;7.370;2022-12-18T01:26:58;101246.44;;;-1.91;73.06
71239;BME280;61342;51.442;7.370;2022-12-18T01:28:02;101226.88;;;-2.05;73.13
71239;BME280;61342;51.442;7.370;2022-12-18T01:29:03;101244.03;;;-1.92;72.98
71239;BME280;61342;51.442;7.370;2022-12-18T01:30:06;101256.47;;;-1.90;72.98
71239;BME280;61342;51.442;7.370;2022-12-18T01:31:30;101249.34;;;-1.98;72.94
71239;BME280;61342;51.442;7.370;2022-12-18T01:32:34;101256.09;;;-1.92;72.96
71239;BME280;61342;51.442;7.370;2022-12-18T01:33:35;101260.19;;;-1.96;73.10
71239;BME280;61342;51.442;7.370;2022-12-18T01:34:36;101234.13;;;-2.04;72.82
71239;BME280;61342;51.442;7.370;2022-12-18T01:35:45;101242.19;;;-2.06;72.74
71239;BME280;61342;51.442;7.370;2022-12-18T01:36:48;101273.75;;;-1.88;72.75
71239;BME280;61342;51.442;7.370;2022-12-18T01:37:54;101252.97;;;-2.01;72.42
71239;BME280;61342;51.442;7.370;2022-12-18T01:38:55;101259.72;;;-1.91;72.69
71239;BME280;61342;51.442;7.370;2022-12-18T01:39:56;101246.94;;;-1.99;72.57
71239;BME280;61342;51.442;7.370;2022-12-18T01:41:00;101244.53;;;-2.01;72.45
71239;BME280;61342;51.442;7.370;2022-12-18T01:42:11;101263.28;;;-1.87;72.70
71239;BME280;61342;51.442;7.370;2022-12-18T01:43:12;101251.31;;;-1.95;72.65
71239;BME280;61342;51.442;7.370;2022-12-18T01:45:50;101252.84;;;-1.90;72.76
71239;BME280;61342;51.442;7.370;2022-12-18T01:46:51;101252.50;;;-1.92;72.70
71239;BME280;61342;51.442;7.370;2022-12-18T01:48:03;101258.44;;;-1.87;72.64
71239;BME280;61342;51.442;7.370;2022-12-18T01:49:05;101258.44;;;-1.87;72.43
71239;BME280;61342;51.442;7.370;2022-12-18T01:50:15;101260.41;;;-1.84;72.73
71239;BME280;61342;51.442;7.370;2022-12-18T01:51:16;101232.06;;;-2.00;72.70
71239;BME280;61342;51.442;7.370;2022-12-18T01:52:18;101238.44;;;-1.96;72.83
71239;BME280;61342;51.442;7.370;2022-12-18T01:53:25;101250.00;;;-1.87;72.76
71239;BME280;61342;51.442;7.370;2022-12-18T01:54:25;101232.03;;;-1.96;72.57
71239;BME280;61342;51.442;7.370;2022-12-18T01:55:29;101228.78;;;-1.95;72.78
71239;BME280;61342;51.442;7.370;2022-12-18T01:56:30;101245.97;;;-1.86;72.58
71239;BME280;61342;51.442;7.370;2022-12-18T01:57:31;101234.38;;;-1.91;72.62
71239;BME280;61342;51.442;7.370;2022-12-18T01:58:55;101246.25;;;-1.77;72.77
71239;BME280;61342;51.442;7.370;2022-12-18T02:00:06;101244.22;;;-1.76;72.83
71239;BME280;61342;51.442;7.370;2022-12-18T02:01:07;101249.00;;;-1.73;72.66
71239;BME280;61342;51.442;7.370;2022-12-18T02:02:08;101242.59;;;-1.74;72.75
71239;BME280;61342;51.442;7.370;2022-12-18T02:03:09;101245.72;;;-1.69;72.74
71239;BME280;61342;51.442;7.370;2022-12-18T02:04:24;101248.53;;;-1.69;72.98
71239;BME280;61342;51.442;7.370;2022-12-18T02:06:41;101246.06;;;-1.63;72.78
71239;BME280;61342;51.442;7.370;2022-12-18T02:08:58;101234.75;;;-1.60;72.63
71239;BME280;61342;51.442;7.370;2022-12-18T02:10:32;101214.84;;;-1.75;72.65
71239;BME280;61342;51.442;7.370;2022-12-18T02:13:20;101252.75;;;-1.54;72.98
71239;BME280;61342;51.442;7.370;2022-12-18T02:14:34;101250.69;;;-1.50;73.37
71239;BME280;61342;51.442;7.370;2022-12-18T02:18:29;101230.44;;;-1.41;72.81
71239;BME280;61342;51.442;7.370;2022-12-18T02:20:52;101237.94;;;-1.31;72.79
71239;BME280;61342;51.442;7.370;2022-12-18T02:26:30;101238.94;;;-1.18;72.55
71239;BME280;61342;51.442;7.370;2022-12-18T02:27:33;101246.91;;;-1.14;72.64
71239;BME280;61342;51.442;7.370;2022-12-18T02:28:41;101232.44;;;-1.16;72.88
71239;BME280;61342;51.442;7.370;2022-12-18T02:29:50;101225.97;;;-1.13;72.52
71239;BME280;61342;51.442;7.370;2022-12-18T02:30:53;101221.09;;;-1.12;72.60
71239;BME280;61342;51.442;7.370;2022-12-18T02:31:58;101226.72;;;-1.09;72.57
71239;BME280;61342;51.442;7.370;2022-12-18T02:33:04;101221.91;;;-1.12;72.36
71239;BME280;61342;51.442;7.370;2022-12-18T02:34:07;101214.94;;;-1.04;72.39
71239;BME280;61342;51.442;7.370;2022-12-18T02:35:15;101196.91;;;-1.10;72.37
71239;BME280;61342;51.442;7.370;2022-12-18T02:36:18;101210.41;;;-0.98;72.22
71239;BME280;61342;51.442;7.370;2022-12-18T02:37:21;101225.53;;;-0.88;72.25
71239;BME280;61342;51.442;7.370;2022-12-18T02:38:24;101222.66;;;-0.85;72.16
71239;BME280;61342;51.442;7.370;2022-12-18T02:39:26;101228.66;;;-0.83;71.91
71239;BME280;61342;51.442;7.370;2022-12-18T02:40:30;101209.44;;;-0.88;72.21
71239;BME280;61342;51.442;7.370;2022-12-18T02:41:31;101207.81;;;-0.89;71.93
71239;BME280;61342;51.442;7.370;2022-12-18T02:42:34;101199.38;;;-0.89;71.98
71239;BME280;61342;51.442;7.370;2022-12-18T02:43:34;101189.28;;;-0.90;71.88
71239;BME280;61342;51.442;7.370;2022-12-18T02:44:43;101185.31;;;-0.92;71.68
71239;BME280;61342;51.442;7.370;2022-12-18T02:45:50;101208.28;;;-0.71;71.82
71239;BME280;61342;51.442;7.370;2022-12-18T02:46:52;101204.34;;;-0.73;71.52
71239;BME280;61342;51.442;7.370;2022-12-18T02:47:56;101189.16;;;-0.83;71.82
71239;BME280;61342;51.442;7.370;2022-12-18T02:49:11;101217.88;;;-0.65;71.74
71239;BME280;61342;51.442;7.370;2022-12-18T02:51:33;101201.06;;;-0.72;71.41
71239;BME280;61342;51.442;7.370;2022-12-18T02:53:03;101227.38;;;-0.56;71.53
71239;BME280;61342;51.442;7.370;2022-12-18T02:54:10;101226.19;;;-0.58;71.57
71239;BME280;61342;51.442;7.370;2022-12-18T02:55:27;101228.47;;;-0.50;71.20
71239;BME280;61342;51.442;7.370;2022-12-18T02:56:37;101223.75;;;-0.56;71.43
71239;BME280;61342;51.442;7.370;2022-12-18T02:57:45;101231.22;;;-0.46;71.33
71239;BME280;61342;51.442;7.370;2022-12-18T02:58:55;101216.06;;;-0.56;70.97
71239;BME280;61342;51.442;7.370;2022-12-18T03:00:16;101194.06;;;-0.64;71.00
71239;BME280;61342;51.442;7.370;2022-12-18T03:04:10;101227.03;;;-0.38;71.05
71239;BME280;61342;51.442;7.370;2022-12-18T03:05:20;101204.25;;;-0.47;70.92
71239;BME280;61342;51.442;7.370;2022-12-18T03:06:27;101217.28;;;-0.34;70.77
71239;BME280;61342;51.442;7.370;2022-12-18T03:07:39;101217.78;;;-0.39;70.65
71239;BME280;61342;51.442;7.370;2022-12-18T03:08:48;101209.25;;;-0.35;70.67
71239;BME280;61342;51.442;7.370;2022-12-18T03:09:50;101187.34;;;-0.51;70.48
71239;BME280;61342;51.442;7.370;2022-12-18T03:12:02;101198.00;;;-0.39;70.48
71239;BME280;61342;51.442;7.370;2022-12-18T03:13:34;101202.50;;;-0.41;70.50
71239;BME280;61342;51.442;7.370;2022-12-18T03:14:38;101218.28;;;-0.24;70.25
71239;BME280;61342;51.442;7.370;2022-12-18T03:15:44;101215.47;;;-0.24;70.28
71239;BME280;61342;51.442;7.370;2022-12-18T03:16:47;101217.00;;;-0.20;70.27
71239;BME280;61342;51.442;7.370;2022-12-18T03:17:56;101186.28;;;-0.37;69.90
71239;BME280;61342;51.442;7.370;2022-12-18T03:19:01;101193.88;;;-0.34;70.03
71239;BME280;61342;51.442;7.370;2022-12-18T03:20:10;101213.38;;;-0.20;69.88
71239;BME280;61342;51.442;7.370;2022-12-18T03:21:14;101203.00;;;-0.27;70.03
71239;BME280;61342;51.442;7.370;2022-12-18T03:22:16;101208.59;;;-0.23;69.74
71239;BME280;61342;51.442;7.370;2022-12-18T03:23:20;101202.28;;;-0.31;69.60
71239;BME280;61342;51.442;7.370;2022-12-18T03:24:22;101212.16;;;-0.19;69.66
71239;BME280;61342;51.442;7.370;2022-12-18T03:25:25;101189.38;;;-0.32;69.76
71239;BME280;61342;51.442;7.370;2022-12-18T03:26:30;101221.69;;;-0.13;69.74
71239;BME280;61342;51.442;7.370;2022-12-18T03:27:35;101225.63;;;-0.07;69.74
71239;BME280;61342;51.442;7.370;2022-12-18T03:28:45;101222.84;;;-0.11;69.41
71239;BME280;61342;51.442;7.370;2022-12-18T03:29:55;101215.25;;;-0.14;69.54
71239;BME280;61342;51.442;7.370;2022-12-18T03:31:09;101219.09;;;-0.04;69.12
71239;BME280;61342;51.442;7.370;2022-12-18T03:32:12;101195.56;;;-0.17;69.57
71239;BME280;61342;51.442;7.370;2022-12-18T03:33:21;101190.41;;;-0.22;69.00
71239;BME280;61342;51.442;7.370;2022-12-18T03:34:34;101203.81;;;-0.07;69.02
71239;BME280;61342;51.442;7.370;2022-12-18T03:35:39;101199.47;;;-0.11;69.38
71239;BME280;61342;51.442;7.370;2022-12-18T03:36:41;101195.78;;;-0.08;68.92
71239;BME280;61342;51.442;7.370;2022-12-18T03:37:47;101183.75;;;-0.12;68.78
71239;BME280;61342;51.442;7.370;2022-12-18T03:38:48;101177.66;;;-0.11;69.01
71239;BME280;61342;51.442;7.370;2022-12-18T03:39:49;101179.34;;;-0.13;68.64
71239;BME280;61342;51.442;7.370;2022-12-18T03:44:50;101186.63;;;0.03;68.68
71239;BME280;61342;51.442;7.370;2022-12-18T03:46:08;101170.84;;;-0.13;68.36
71239;BME280;61342;51.442;7.370;2022-12-18T03:48:38;101177.50;;;-0.04;68.31
71239;BME280;61342;51.442;7.370;2022-12-18T03:49:56;101197.44;;;0.08;68.35
71239;BME280;61342;51.442;7.370;2022-12-18T03:51:24;101189.75;;;0.09;68.48
71239;BME280;61342;51.442;7.370;2022-12-18T03:52:44;101204.31;;;0.07;68.15
71239;BME280;61342;51.442;7.370;2022-12-18T03:54:02;101206.69;;;0.09;68.22
71239;BME280;61342;51.442;7.370;2022-12-18T03:55:05;101211.91;;;0.10;68.26
71239;BME280;61342;51.442;7.370;2022-12-18T03:56:08;101215.13;;;0.12;68.36
71239;BME280;61342;51.442;7.370;2022-12-18T03:57:15;101202.31;;;0.08;68.13
71239;BME280;61342;51.442;7.370;2022-12-18T03:58:20;101212.28;;;0.12;68.14
71239;BME280;61342;51.442;7.370;2022-12-18T03:59:21;101227.19;;;0.13;67.98
71239;BME280;61342;51.442;7.370;2022-12-18T04:00:23;101213.16;;;0.09;67.76
71239;BME280;61342;51.442;7.370;2022-12-18T04:01:30;101208.25;;;0.13;68.05
71239;BME280;61342;51.442;7.370;2022-12-18T04:02:31;101205.41;;;0.13;67.63
71239;BME280;61342;51.442;7.370;2022-12-18T04:03:35;101211.84;;;0.14;67.66
71239;BME280;61342;51.442;7.370;2022-12-18T04:04:38;101204.97;;;0.15;67.82
71239;BME280;61342;51.442;7.370;2022-12-18T04:05:41;101203.38;;;0.14;67.48
71239;BME280;61342;51.442;7.370;2022-12-18T04:06:43;101189.03;;;0.05;67.59
71239;BME280;61342;51.442;7.370;2022-12-18T04:07:47;101190.19;;;0.07;67.61
71239;BME280;61342;51.442;7.370;2022-12-18T04:08:52;101205.41;;;0.13;67.39
71239;BME280;61342;51.442;7.370;2022-12-18T04:09:55;101208.59;;;0.15;67.40
71239;BME280;61342;51.442;7.370;2022-12-18T04:10:56;101214.22;;;0.15;67.37
71239;BME280;61342;51.442;7.370;2022-12-18T04:11:57;101178.75;;;-0.05;67.51
71239;BME280;61342;51.442;7.370;2022-12-18T04:12:58;101190.34;;;0.00;67.19
71239;BME280;61342;51.442;7.370;2022-12-18T04:13:58;101189.47;;;0.03;67.50
71239;BME280;61342;51.442;7.370;2022-12-18T04:14:59;101211.06;;;0.13;67.45
71239;BME280;61342;51.442;7.370;2022-12-18T04:16:00;101185.13;;;-0.01;67.23
71239;BME280;61342;51.442;7.370;2022-12-18T04:17:02;101179.09;;;-0.03;67.19
71239;BME280;61342;51.442;7.370;2022-12-18T04:18:03;101198.22;;;0.09;67.16
71239;BME280;61342;51.442;7.370;2022-12-18T04:19:04;101189.91;;;0.02;67.35
71239;BME280;61342;51.442;7.370;2022-12-18T04:20:08;101202.72;;;0.06;67.15
71239;BME280;61342;51.442;7.370;2022-12-18T04:21:09;101213.88;;;0.13;67.04
71239;BME280;61342;51.442;7.370;2022-12-18T04:22:10;101183.53;;;-0.02;67.23
71239;BME280;61342;51.442;7.370;2022-12-18T04:23:13;101198.75;;;0.04;67.19
71239;BME280;61342;51.442;7.370;2022-12-18T04:24:13;101198.38;;;0.02;66.94
71239;BME280;61342;51.442;7.370;2022-12-18T04:25:17;101206.84;;;0.02;67.12
71239;BME280;61342;51.442;7.370;2022-12-18T04:26:17;101184.91;;;-0.10;67.04
71239;BME280;61342;51.442;7.370;2022-12-18T04:27:18;101200.47;;;-0.02;67.00
71239;BME280;61342;51.442;7.370;2022-12-18T04:28:18;101178.88;;;-0.12;67.32
71239;BME280;61342;51.442;7.370;2022-12-18T04:29:18;101191.78;;;-0.11;67.03
71239;BME280;61342;51.442;7.370;2022-12-18T04:30:19;101204.91;;;-0.01;66.91
71239;BME280;61342;51.442;7.370;2022-12-18T04:31:22;101198.16;;;-0.07;67.03
71239;BME280;61342;51.442;7.370;2022-12-18T04:32:23;101198.16;;;-0.07;66.92
71239;BME280;61342;51.442;7.370;2022-12-18T04:33:25;101199.75;;;-0.06;66.94
71239;BME280;61342;51.442;7.370;2022-12-18T04:34:26;101194.19;;;-0.09;67.07
71239;BME280;61342;51.442;7.370;2022-12-18T04:35:26;101191.00;;;-0.11;66.78
71239;BME280;61342;51.442;7.370;2022-12-18T04:36:27;101206.13;;;-0.02;67.05
71239;BME280;61342;51.442;7.370;2022-12-18T04:37:27;101182.31;;;-0.20;67.17
71239;BME280;61342;51.442;7.370;2022-12-18T04:38:28;101191.88;;;-0.14;67.05
71239;BME280;61342;51.442;7.370;2022-12-18T04:39:28;101195.13;;;-0.16;66.99
71239;BME280;61342;51.442;7.370;2022-12-18T04:40:29;101206.34;;;-0.12;66.86
71239;BME280;61342;51.442;7.370;2022-12-18T04:41:29;101182.38;;;-0.24;67.00
71239;BME280;61342;51.442;7.370;2022-12-18T04:42:30;101195.22;;;-0.19;66.96
71239;BME280;61342;51.442;7.370;2022-12-18T04:43:30;101191.66;;;-0.23;66.79
71239;BME280;61342;51.442;7.370;2022-12-18T04:44:36;101183.63;;;-0.25;66.83
71239;BME280;61342;51.442;7.370;2022-12-18T04:45:36;101194.38;;;-0.20;66.97
71239;BME280;61342;51.442;7.370;2022-12-18T04:46:39;101215.63;;;-0.12;66.96
71239;BME280;61342;51.442;7.370;2022-12-18T04:47:40;101198.53;;;-0.24;66.88
71239;BME280;61342;51.442;7.370;2022-12-18T04:48:40;101180.13;;;-0.32;66.87
71239;BME280;61342;51.442;7.370;2022-12-18T04:49:41;101196.59;;;-0.27;66.76
71239;BME280;61342;51.442;7.370;2022-12-18T04:50:41;101216.94;;;-0.16;67.02
71239;BME280;61342;51.442;7.370;2022-12-18T04:51:42;101209.69;;;-0.17;67.03
71239;BME280;61342;51.442;7.370;2022-12-18T04:52:42;101205.41;;;-0.25;67.07
71239;BME280;61342;51.442;7.370;2022-12-18T04:53:42;101197.81;;;-0.28;66.69
71239;BME280;61342;51.442;7.370;2022-12-18T04:54:43;101205.06;;;-0.27;66.67
71239;BME280;61342;51.442;7.370;2022-12-18T04:55:43;101211.44;;;-0.23;66.68
71239;BME280;61342;51.442;7.370;2022-12-18T04:56:43;101210.63;;;-0.24;66.87
71239;BME280;61342;51.442;7.370;2022-12-18T04:57:44;101209.03;;;-0.25;66.94
71239;BME280;61342;51.442;7.370;2022-12-18T04:58:44;101206.56;;;-0.23;66.69
71239;BME280;61342;51.442;7.370;2022-12-18T04:59:47;101199.41;;;-0.27;66.77
71239;BME280;61342;51.442;7.370;2022-12-18T05:00:47;101200.25;;;-0.30;67.04
71239;BME280;61342;51.442;7.370;2022-12-18T05:01:48;101203.44;;;-0.28;67.07
71239;BME280;61342;51.442;7.370;2022-12-18T05:02:48;101194.97;;;-0.28;66.89
71239;BME280;61342;51.442;7.370;2022-12-18T05:03:51;101200.25;;;-0.30;66.88
71239;BME280;61342;51.442;7.370;2022-12-18T05:04:52;101195.13;;;-0.35;nan
71239;BME280;61342;51.442;7.370;2022-12-18T05:05:52;101197.94;;;-0.35;67.07
71239;BME280;61342;51.442;7.370;2022-12-18T05:06:53;101186.78;;;-0.42;66.61
71239;BME280;61342;51.442;7.370;2022-12-18T05:07:56;101177.97;;;-0.44;66.95
71239;BME280;61342;51.442;7.370;2022-12-18T05:08:57;101188.81;;;-0.43;66.71
71239;BME280;61342;51.442;7.370;2022-12-18T05:09:57;101182.06;;;-0.49;66.91
71239;BME280;61342;51.442;7.370;2022-12-18T05:11:18;101185.69;;;-0.48;66.86
71239;BME280;61342;51.442;7.370;2022-12-18T05:12:19;101178.09;;;-0.51;66.90
71239;BME280;61342;51.442;7.370;2022-12-18T05:13:19;101189.59;;;-0.42;67.01
71239;BME280;61342;51.442;7.370;2022-12-18T05:14:19;101185.22;;;-0.43;66.86
71239;BME280;61342;51.442;7.370;2022-12-18T05:15:20;101179.56;;;-0.43;66.83
71239;BME280;61342;51.442;7.370;2022-12-18T05:16:20;101179.69;;;-0.50;66.96
71239;BME280;61342;51.442;7.370;2022-12-18T05:17:20;101176.31;;;-0.42;66.72
71239;BME280;61342;51.442;7.370;2022-12-18T05:18:22;101149.66;;;-0.60;66.72
71239;BME280;61342;51.442;7.370;2022-12-18T05:19:23;101181.13;;;-0.42;66.80
71239;BME280;61342;51.442;7.370;2022-12-18T05:20:24;101182.72;;;-0.41;66.88
71239;BME280;61342;51.442;7.370;2022-12-18T05:21:24;101179.91;;;-0.41;66.79
71239;BME280;61342;51.442;7.370;2022-12-18T05:22:28;101182.72;;;-0.41;66.60
71239;BME280;61342;51.442;7.370;2022-12-18T05:23:29;101172.66;;;-0.42;66.82
71239;BME280;61342;51.442;7.370;2022-12-18T05:24:29;101150.00;;;-0.58;66.47
71239;BME280;61342;51.442;7.370;2022-12-18T05:25:33;101169.94;;;-0.46;66.58
71239;BME280;61342;51.442;7.370;2022-12-18T05:26:33;101170.22;;;-0.40;66.74
71239;BME280;61342;51.442;7.370;2022-12-18T05:27:33;101147.41;;;-0.49;66.78
71239;BME280;61342;51.442;7.370;2022-12-18T05:28:35;101148.72;;;-0.54;66.31
71239;BME280;61342;51.442;7.370;2022-12-18T05:29:35;101159.72;;;-0.40;66.47
71239;BME280;61342;51.442;7.370;2022-12-18T05:30:36;101153.28;;;-0.40;66.43
71239;BME280;61342;51.442;7.370;2022-12-18T05:31:36;101156.44;;;-0.38;66.40
71239;BME280;61342;51.442;7.370;2022-12-18T05:32:37;101161.25;;;-0.35;66.47
71239;BME280;61342;51.442;7.370;2022-12-18T05:33:38;101154.34;;;-0.34;66.46
71239;BME280;61342;51.442;7.370;2022-12-18T05:34:38;101155.59;;;-0.35;66.48
71239;BME280;61342;51.442;7.370;2022-12-18T05:35:38;101159.16;;;-0.31;66.29
71239;BME280;61342;51.442;7.370;2022-12-18T05:36:39;101158.34;;;-0.32;66.07
71239;BME280;61342;51.442;7.370;2022-12-18T05:37:39;101153.06;;;-0.30;66.34
71239;BME280;61342;51.442;7.370;2022-12-18T05:38:40;101159.88;;;-0.27;66.12
71239;BME280;61342;51.442;7.370;2022-12-18T05:39:42;101159.00;;;-0.24;65.99
71239;BME280;61342;51.442;7.370;2022-12-18T05:40:43;101154.94;;;-0.23;66.14
71239;BME280;61342;51.442;7.370;2022-12-18T05:41:43;101151.31;;;-0.24;66.18
71239;BME280;61342;51.442;7.370;2022-12-18T05:42:44;101144.44;;;-0.23;65.93
71239;BME280;61342;51.442;7.370;2022-12-18T05:43:44;101158.94;;;-0.21;65.81
71239;BME280;61342;51.442;7.370;2022-12-18T05:44:44;101152.84;;;-0.19;65.96
71239;BME280;61342;51.442;7.370;2022-12-18T05:45:45;101158.06;;;-0.18;65.82
71239;BME280;61342;51.442;7.370;2022-12-18T05:46:45;101155.56;;;-0.16;65.85
71239;BME280;61342;51.442;7.370;2022-12-18T05:47:46;101158.84;;;-0.17;65.54
71239;BME280;61342;51.442;7.370;2022-12-18T05:48:46;101160.00;;;-0.15;65.81
71239;BME280;61342;51.442;7.370;2022-12-18T05:49:48;101161.94;;;-0.12;65.71
71239;BME280;61342;51.442;7.370;2022-12-18T05:50:49;101172.84;;;-0.10;65.68
71239;BME280;61342;51.442;7.370;2022-12-18T05:51:50;101168.03;;;-0.13;65.59
71239;BME280;61342;51.442;7.370;2022-12-18T05:52:50;101173.19;;;-0.08;65.39
71239;BME280;61342;51.442;7.370;2022-12-18T05:53:51;101174.84;;;-0.11;65.23
71239;BME280;61342;51.442;7.370;2022-12-18T05:54:51;101168.41;;;-0.11;65.16
71239;BME280;61342;51.442;7.370;2022-12-18T05:55:52;101180.00;;;-0.06;65.36
71239;BME280;61342;51.442;7.370;2022-12-18T05:56:52;101190.06;;;-0.05;65.05